Rhonda Lamulle — WDC8441 — position and weather

sailwx.info

Track history (hours):
 
Tides and Currents Weather Stations Pressure Air Temp Water Temp Dewpoint Dewpoint Depression Visibility Wind Speed Wind Dir Waves Ship Positions

Rhonda Lamulle

Owner: Florida Marine Transporters, Inc., Mandeville, LA. More information available from US FCC via Universal Licensing System and Coast Guard Vessel Documentation Center.

Last reported at 2014-Sep-26 07:09 UTC. Time now 2014-Oct-02 04:24 UTC.
Position N 30°25' W 086°11'.

Length 27 m; draft 3 m.

Type: Towing. MMSI: 367087160.

Date/timePositionNaut miles runAvg speedWind from/ knotsBaromVisibWave heightAir tempDewpointWater temp
2014-Sep-26 07:09N 30°25' W 086°11'3 5.5
2014-Sep-26 06:33N 30°26' W 086°14'6 5.7
2014-Sep-26 05:33N 30°26' W 086°21'6 6.1
2014-Sep-26 04:33N 30°26' W 086°28'6 5.9
2014-Sep-26 03:33N 30°24' W 086°35'5 4.8
2014-Sep-26 02:32N 30°24' W 086°40'5 4.9
2014-Sep-26 01:33N 30°24' W 086°46'6 5.5
2014-Sep-26 00:33N 30°24' W 086°52'6 5.8
2014-Sep-25 23:34N 30°23' W 086°59'  
Track history (hours):
 
Tides and Currents Weather Stations Pressure Air Temp Water Temp Dewpoint Dewpoint Depression Visibility Wind Speed Wind Dir Waves Ship Positions

Rhonda Lamulle

Owner: Florida Marine Transporters, Inc., Mandeville, LA. More information available from US FCC via Universal Licensing System and Coast Guard Vessel Documentation Center.

Last reported at 2014-Sep-26 07:09 UTC. Time now 2014-Oct-02 04:24 UTC.
Position N 30°25' W 086°11'.

Length 27 m; draft 3 m.

Type: Towing. MMSI: 367087160.

Date/timePositionNaut miles runAvg speedWind from/ knotsBaromVisibWave heightAir tempDewpointWater temp
2014-Sep-26 07:09N 30°25' W 086°11'3 5.5
2014-Sep-26 06:33N 30°26' W 086°14'6 5.7
2014-Sep-26 05:33N 30°26' W 086°21'6 6.1
2014-Sep-26 04:33N 30°26' W 086°28'6 5.9
2014-Sep-26 03:33N 30°24' W 086°35'5 4.8
2014-Sep-26 02:32N 30°24' W 086°40'5 4.9
2014-Sep-26 01:33N 30°24' W 086°46'6 5.5
2014-Sep-26 00:33N 30°24' W 086°52'6 5.8
2014-Sep-25 23:34N 30°23' W 086°59'  

Dump ship's entire track history